Helen Merril — WDF2994 — position and weather

sailwx.info

Track history (hours):
 
Tides and Currents Weather Stations Pressure Air Temp Water Temp Dewpoint Dewpoint Depression Visibility Wind Speed Wind Dir Waves Ship Positions

Helen Merril

Owner: SCF Waxler Marine LLC, St. Rose, LA. More information available from US FCC via Universal Licensing System and Coast Guard Vessel Documentation Center.

Last reported at 2015-May-16 20:30 UTC. Time now 2015-May-22 14:39 UTC.
Position N 30°23' W 091°19'.

Length 33 m; draft 3 m.

Type: Ship (hazmat cat A). MMSI: 367434260.

Date/timePositionNaut miles runAvg speedWind from/ knotsBaromVisibWave heightAir tempDewpointWater temp
2015-May-16 20:30N 30°23' W 091°19'3 3.0
2015-May-16 19:33N 30°25' W 091°18'4 3.8
2015-May-16 18:32N 30°26' W 091°13'1 1.2
2015-May-16 17:33N 30°26' W 091°12'0 0.1
2015-May-16 16:33N 30°26' W 091°12'1 1.5
2015-May-16 15:33N 30°24' W 091°12'0 0.2
2015-May-16 14:33N 30°24' W 091°12'7 6.7
2015-May-16 13:33N 30°31' W 091°14'4 4.2
2015-May-16 12:33N 30°34' W 091°17'2 2.3
2015-May-16 11:33N 30°36' W 091°19'2 1.5
2015-May-16 10:33N 30°37' W 091°18'  
Track history (hours):
 
Tides and Currents Weather Stations Pressure Air Temp Water Temp Dewpoint Dewpoint Depression Visibility Wind Speed Wind Dir Waves Ship Positions

Helen Merril

Owner: SCF Waxler Marine LLC, St. Rose, LA. More information available from US FCC via Universal Licensing System and Coast Guard Vessel Documentation Center.

Last reported at 2015-May-16 20:30 UTC. Time now 2015-May-22 14:39 UTC.
Position N 30°23' W 091°19'.

Length 33 m; draft 3 m.

Type: Ship (hazmat cat A). MMSI: 367434260.

Date/timePositionNaut miles runAvg speedWind from/ knotsBaromVisibWave heightAir tempDewpointWater temp
2015-May-16 20:30N 30°23' W 091°19'3 3.0
2015-May-16 19:33N 30°25' W 091°18'4 3.8
2015-May-16 18:32N 30°26' W 091°13'1 1.2
2015-May-16 17:33N 30°26' W 091°12'0 0.1
2015-May-16 16:33N 30°26' W 091°12'1 1.5
2015-May-16 15:33N 30°24' W 091°12'0 0.2
2015-May-16 14:33N 30°24' W 091°12'7 6.7
2015-May-16 13:33N 30°31' W 091°14'4 4.2
2015-May-16 12:33N 30°34' W 091°17'2 2.3
2015-May-16 11:33N 30°36' W 091°19'2 1.5
2015-May-16 10:33N 30°37' W 091°18'  

Dump ship's entire track history